Have a Safe July 4th! 

Flight Track Log - Related Links

Times and Time Zones

All times are in EDT time to prevent confusion due to time zone crossing. See the KAP29 flight status page for this flight to view local times or setup timezone preferences in your user account.

Time Position Orientation Groundspeed Altitude Reporting Facility
EDT Latitude Longitude Course Direction KTS MPH feet Rate Location/Type
Thu 06:38:35 AM 44.3711 -74.0375 109° East 154 177 6,500  Level Boston Center
Thu 06:39:35 AM 44.3508 -73.9875 120° Southeast 154 177 7,400 700 Climbing Boston Center
Thu 06:40:35 AM 44.3267 -73.9375 124° Southeast 154 177 7,900 500 Climbing Boston Center
Thu 06:41:35 AM 44.3044 -73.8819 119° Southeast 154 177 8,400 450 Climbing Boston Center
Thu 06:42:35 AM 44.2800 -73.8292 123° Southeast 154 177 8,800 300 Climbing Boston Center
Thu 06:43:00 AM 44.2924 -74.0136 133° Southeast  Level FlightAware Approximate
Thu 06:43:35 AM 44.2556 -73.7764 123° Southeast 154 177 9,000  Level Boston Center
Thu 06:44:00 AM 44.2770 -73.9748 109° East  Level FlightAware Approximate
Thu 06:44:47 AM 44.2250 -73.7206 127° Southeast 171 197 9,000  Level Boston Center
Thu 06:45:47 AM 44.1967 -73.6475 118° Southeast 177 204 9,000  Level Boston Center
Thu 06:46:47 AM 44.1722 -73.5950 123° Southeast 182 209 9,000  Level Boston Center
Thu 06:47:47 AM 44.1436 -73.5336 123° Southeast 182 209 9,000  Level Boston Center
Thu 06:48:47 AM 44.1169 -73.4781 124° Southeast 182 209 9,000  Level Boston Center
Thu 06:49:47 AM 44.0883 -73.4228 126° Southeast 176 203 9,000  Level Boston Center
Thu 06:50:47 AM 44.0639 -73.3617 119° Southeast 176 203 9,000  Level Boston Center
Thu 06:51:47 AM 44.0372 -73.3064 124° Southeast 176 203 9,000  Level Boston Center
Thu 06:52:47 AM 44.0064 -73.2425 124° Southeast 176 203 9,000  Level Boston Center
Thu 06:53:47 AM 43.9778 -73.1817 123° Southeast 176 203 9,000  Level Boston Center
Thu 06:54:47 AM 43.9531 -73.1264 122° Southeast 176 203 9,000  Level Boston Center
Thu 06:55:47 AM 43.9242 -73.0656 123° Southeast 176 203 9,000  Level Boston Center
Thu 06:56:47 AM 43.8994 -73.0078 121° Southeast 176 203 9,000  Level Boston Center
Thu 06:57:47 AM 43.8706 -72.9497 125° Southeast 176 203 9,000  Level Boston Center
Thu 06:58:47 AM 43.8436 -72.8919 123° Southeast 176 203 9,000  Level Boston Center
Thu 06:59:47 AM 43.8169 -72.8342 123° Southeast 176 203 9,000  Level Boston Center
Thu 07:00:47 AM 43.7900 -72.7767 123° Southeast 176 203 9,000  Level Boston Center
Thu 07:01:47 AM 43.7650 -72.7247 124° Southeast 176 203 9,000  Level Boston Center
Thu 07:02:47 AM 43.7381 -72.6672 123° Southeast 176 203 9,000 50 Level Boston Center
Thu 07:03:47 AM 43.7092 -72.6039 122° Southeast 176 203 9,100 50 Climbing Boston Center
Thu 07:04:47 AM 43.6819 -72.5464 123° Southeast 176 203 9,100  Level Boston Center
Thu 07:05:47 AM 43.6528 -72.4861 124° Southeast 176 203 9,100  Level Boston Center
Thu 07:06:47 AM 43.6258 -72.4258 122° Southeast 176 203 9,100  Level Boston Center
Thu 07:07:47 AM 43.5986 -72.3683 123° Southeast 176 203 9,100  Level Boston Center
Thu 07:08:47 AM 43.5717 -72.3111 123° Southeast 176 203 9,100  Level Boston Center
Thu 07:09:47 AM 43.5422 -72.2511 124° Southeast 176 203 9,100  Level Boston Center
Thu 07:10:47 AM 43.5192 -72.1994 122° Southeast 181 208 9,100  Level Boston Center
Thu 07:11:47 AM 43.4919 -72.1425 123° Southeast 181 208 9,100  Level Boston Center
Thu 07:12:47 AM 43.4628 -72.0853 125° Southeast 181 208 9,100  Level Boston Center
Thu 07:13:47 AM 43.4333 -72.0311 127° Southeast 181 208 9,100  Level Boston Center
Thu 07:14:47 AM 43.3936 -71.9831 139° Southeast 176 203 9,100  Level Boston Center
Thu 07:15:47 AM 43.3622 -71.9403 135° Southeast 176 203 9,100  Level Boston Center
Thu 07:16:47 AM 43.3244 -71.8864 134° Southeast 176 203 9,100  Level Boston Center
Thu 07:17:47 AM 43.2928 -71.8439 136° Southeast 176 203 9,100  Level Boston Center
Thu 07:18:47 AM 43.2550 -71.7931 136° Southeast 171 197 9,100 -150 Level Boston Center
Thu 07:19:47 AM 43.2236 -71.7506 135° Southeast 171 197 8,800 -350 Descending Boston Center
Thu 07:20:47 AM 43.1817 -71.6942 136° Southeast 176 203 8,400 -300 Descending Boston Center
Thu 07:21:47 AM 43.1500 -71.6461 132° Southeast 181 208 8,200 -250 Descending Boston Center
Thu 07:22:47 AM 43.1081 -71.5925 137° Southeast 181 208 7,900 -410 Descending Boston Center
Thu 07:24:28 AM 43.0500 -71.5000 131° Southeast 185 213 7,100 -431 Descending KA90
Thu 07:25:34 AM 43.0167 -71.4500 132° Southeast 181 208 6,700 -381 Descending KA90
Thu 07:26:34 AM 42.9833 -71.4000 132° Southeast 180 207 6,300 -368 Descending KA90
Thu 07:27:28 AM 42.9500 -71.3667 144° Southeast 177 204 6,000 -209 Descending KA90
Thu 07:28:29 AM 42.9167 -71.3167 132° Southeast 167 192 5,900 -48 Descending KA90
Thu 07:29:34 AM 42.8667 -71.2833 154° Southeast 162 186 5,900  Level KA90
Thu 07:30:34 AM 42.8333 -71.2333 132° Southeast 160 184 5,900  Level KA90
Thu 07:31:34 AM 42.8000 -71.2000 144° Southeast 158 182 5,900 -350 Level KA90
Thu 07:32:34 AM 42.7667 -71.1667 144° Southeast 176 203 5,200 -550 Descending KA90
Thu 07:33:34 AM 42.7167 -71.1167 144° Southeast 179 206 4,800 -350 Descending KA90
Thu 07:34:34 AM 42.6833 -71.0833 144° Southeast 173 199 4,500 -403 Descending KA90
Thu 07:35:33 AM 42.6500 -71.0500 144° Southeast 177 204 4,000 -400 Descending KA90
Thu 07:36:34 AM 42.6000 -71.0333 166° South 172 198 3,700 -347 Descending KA90
Thu 07:37:34 AM 42.5500 -71.0000 154° Southeast 167 192 3,300 -500 Descending KA90
Thu 07:38:34 AM 42.5000 -70.9833 166° South 174 200 2,700 -632 Descending KA90
Thu 07:39:28 AM 42.4667 -70.9833 180° South 174 200 2,100 -823 Descending KA90
Thu 07:41:29 AM 42.3833 -71.0000 188° South 136 157 300 -893 Descending KA90
Thu 07:43:00 AM 42.3630 -71.0064 172° South  Level Estimated
Thu 07:50:00 AM 42.3630 -71.0064 172° South  Level Estimated

Login

Don't have an account? Register now (free) for customized features, flight alerts, and more!